Larimer, Pennsylvania
Current Conditions -  °F | °C
As of 4:34 PM on Friday 19 Dec 2014 (Local Time) from KAGC Reporting Station
Overcast Overcast  
Wind Chill: 30°   Ceiling: 2800
Heat Index: 30°   Visibility: 10mi
Dew Point: 19°   Wind: 3mph
Humidity: 64%   Direction: 320°NW
Pressure: 30.2"   Gusts: NA
Location:  40.35°N, 79.73°W
Report Text: KAGC 192134Z 32003KT 10SM OVC028 M01/M07 A3020 RMK AO2 T10111072
Loading
Personal Weather Stations






























Interactive Weather Map New forecast layout! Learn more

10-Day Weather Forecast

Advertisements
Track Severe Weather on mobile